Time;durP1;ratioP1;P1;durP2;ratioP2;P2;SDS_P1;SDS_P2;PMS_P1;PMS_P2;Temp;Humidity;BMP_temperature;BMP_pressure;BME280_temperature;BME280_humidity;BME280_pressure;Samples;Min_cycle;Max_cycle;Signal;HPM_P1;HPM_P2
2022/01/27 00:01:14;;;;;;;51.78;14.73;;;-1.40;99.90;;;;;;4989068;28;20489;-76
2022/01/27 00:03:50;;;;;;;35.50;13.40;;;-1.10;99.90;;;;;;4969988;28;20148;-79
2022/01/27 00:06:16;;;;;;;35.80;10.27;;;-1.70;99.90;;;;;;4970341;28;20103;-76
2022/01/27 00:08:55;;;;;;;38.53;14.57;;;-1.70;99.90;;;;;;4968903;28;20037;-76
2022/01/27 00:11:21;;;;;;;41.88;14.02;;;-1.40;99.90;;;;;;4968117;28;20103;-77
2022/01/27 00:13:49;;;;;;;37.83;13.25;;;-1.70;99.90;;;;;;4951638;28;20447;-77
2022/01/27 00:16:21;;;;;;;44.22;13.55;;;-1.80;99.90;;;;;;4969667;28;20030;-76
2022/01/27 00:18:49;;;;;;;37.88;12.18;;;-1.50;99.90;;;;;;4968727;28;20045;-77
2022/01/27 00:21:19;;;;;;;38.42;12.48;;;-1.50;99.90;;;;;;4968000;28;20431;-77
2022/01/27 00:23:45;;;;;;;;;;;-1.30;99.90;;;;;;4969116;28;20049;-76
2022/01/27 00:26:11;;;;;;;31.75;10.77;;;-1.30;99.90;;;;;;4967953;28;20291;-76
2022/01/27 00:28:38;;;;;;;39.15;13.95;;;-1.30;99.90;;;;;;4970106;28;20053;-77
2022/01/27 00:31:04;;;;;;;39.70;11.55;;;-1.00;99.90;;;;;;4969217;28;20038;-76
2022/01/27 00:33:30;;;;;;;34.60;12.02;;;-1.70;99.90;;;;;;4968807;28;20027;-76
2022/01/27 00:35:56;;;;;;;36.28;11.30;;;-1.80;99.90;;;;;;4969371;28;20037;-80
2022/01/27 00:38:21;;;;;;;42.50;14.05;;;-1.40;99.90;;;;;;4968341;28;20051;-75
2022/01/27 00:40:47;;;;;;;36.83;13.38;;;-1.60;99.90;;;;;;4969390;28;20030;-79
2022/01/27 00:43:13;;;;;;;39.13;12.50;;;-1.70;99.90;;;;;;4950949;28;20050;-76
2022/01/27 00:45:39;;;;;;;42.42;12.50;;;-0.80;99.90;;;;;;4968607;28;20039;-77
2022/01/27 00:48:05;;;;;;;44.17;14.27;;;-1.70;99.90;;;;;;4968093;28;20022;-77
2022/01/27 00:50:34;;;;;;;38.70;14.20;;;-1.70;99.90;;;;;;4950876;28;20030;-77
2022/01/27 00:53:03;;;;;;;39.53;13.27;;;-1.10;99.90;;;;;;4968991;28;20023;-76
2022/01/27 00:55:32;;;;;;;35.17;11.95;;;-1.60;99.90;;;;;;4969280;28;20125;-76
2022/01/27 01:00:38;;;;;;;32.78;11.35;;;-0.60;99.90;;;;;;4968950;28;20063;-77
2022/01/27 01:03:11;;;;;;;41.25;13.52;;;-1.70;99.90;;;;;;4984527;28;20068;-76
2022/01/27 01:16:26;;;;;;;41.78;13.18;;;-1.70;99.90;;;;;;4988159;28;20084;-76
2022/01/27 01:19:03;;;;;;;31.42;10.55;;;-1.60;99.90;;;;;;4987105;28;20039;-77
2022/01/27 01:21:53;;;;;;;38.95;14.38;;;-1.60;99.90;;;;;;4969522;28;20030;-77
2022/01/27 01:30:50;;;;;;;27.38;11.40;;;-1.70;99.90;;;;;;4988815;28;20134;-77
2022/01/27 01:32:50;;;;;;;34.33;11.15;;;-1.70;99.90;;;;;;4979686;28;20042;-77
2022/01/27 01:35:26;;;;;;;44.83;11.52;;;-1.80;99.90;;;;;;4989225;28;20069;-76
2022/01/27 01:37:53;;;;;;;39.70;13.07;;;-1.90;99.90;;;;;;4990464;28;20058;-77
2022/01/27 01:40:19;;;;;;;37.90;13.20;;;-0.90;99.90;;;;;;4993346;28;20029;-77
2022/01/27 01:42:45;;;;;;;36.63;11.23;;;-0.80;99.90;;;;;;4993984;28;20030;-76
2022/01/27 01:45:14;;;;;;;42.35;14.30;;;-2.00;99.90;;;;;;4993731;28;20167;-76
2022/01/27 01:47:40;;;;;;;42.65;11.80;;;-2.00;99.90;;;;;;4994425;28;20036;-75
2022/01/27 01:50:09;;;;;;;40.47;11.60;;;-2.00;99.90;;;;;;4994993;28;20034;-76
2022/01/27 01:52:34;;;;;;;47.45;14.63;;;-2.10;99.90;;;;;;4977233;28;20022;-76
2022/01/27 01:55:01;;;;;;;43.45;13.40;;;-1.30;99.90;;;;;;4994369;28;20050;-77
2022/01/27 01:57:27;;;;;;;35.97;10.38;;;-1.80;99.90;;;;;;4993894;28;20030;-77
2022/01/27 01:59:53;;;;;;;42.40;11.85;;;-1.20;99.90;;;;;;4994507;28;20306;-76
2022/01/27 02:02:19;;;;;;;28.23;9.85;;;-2.10;99.90;;;;;;4993669;28;20052;-78
2022/01/27 02:04:45;;;;;;;40.78;12.48;;;-1.80;99.90;;;;;;4994437;28;20031;-77
2022/01/27 02:07:39;;;;;;;38.13;12.93;;;-1.70;99.90;;;;;;4977159;28;20383;-77
2022/01/27 02:10:35;;;;;;;31.17;11.15;;;-2.20;99.90;;;;;;4994227;28;20018;-76
2022/01/27 02:18:29;;;;;;;40.08;13.10;;;-2.30;99.90;;;;;;4993474;28;20196;-77
2022/01/27 02:20:55;;;;;;;43.95;11.95;;;-2.30;99.90;;;;;;4976044;28;20109;-76
2022/01/27 02:23:21;;;;;;;43.72;12.13;;;-1.20;99.90;;;;;;4975445;28;20176;-77
2022/01/27 02:25:47;;;;;;;39.08;12.38;;;-1.40;99.90;;;;;;4975865;28;20022;-77
2022/01/27 02:28:12;;;;;;;47.50;12.32;;;-2.30;99.90;;;;;;4994164;28;20045;-76
2022/01/27 02:30:38;;;;;;;35.63;12.52;;;-2.20;99.90;;;;;;4976197;28;20045;-77
2022/01/27 02:33:04;;;;;;;40.97;12.90;;;-1.10;99.90;;;;;;4994078;28;20414;-78
2022/01/27 02:35:34;;;;;;;38.17;11.75;;;-1.30;99.90;;;;;;4976321;28;20046;-79
2022/01/27 02:38:00;;;;;;;39.97;12.85;;;-1.20;99.90;;;;;;4993221;28;20105;-77
2022/01/27 02:40:25;;;;;;;34.75;12.23;;;-2.20;99.90;;;;;;4993324;28;20403;-77
2022/01/27 02:42:52;;;;;;;37.92;11.60;;;-2.20;99.90;;;;;;4993187;28;20534;-77
2022/01/27 02:45:41;;;;;;;27.85;11.02;;;-2.20;99.90;;;;;;4993260;28;20044;-77
2022/01/27 02:48:07;;;;;;;;;;;-1.70;99.90;;;;;;4972026;28;20042;-76
2022/01/27 02:50:33;;;;;;;39.17;9.13;;;-1.30;99.90;;;;;;4991841;28;19906;-77
2022/01/27 02:52:58;;;;;;;33.20;11.88;;;-1.70;99.90;;;;;;4993120;28;20045;-77
2022/01/27 02:55:24;;;;;;;37.83;13.20;;;-1.50;99.90;;;;;;4993074;28;20622;-77
2022/01/27 02:57:50;;;;;;;42.58;13.07;;;-1.00;99.90;;;;;;4992858;28;20038;-76
2022/01/27 03:00:16;;;;;;;44.72;14.88;;;-0.80;99.90;;;;;;4993199;28;20066;-77
2022/01/27 03:02:42;;;;;;;33.58;12.55;;;-2.10;99.90;;;;;;4992504;28;20022;-76
2022/01/27 03:05:08;;;;;;;40.05;13.63;;;-1.70;99.90;;;;;;4975032;28;20606;-77
2022/01/27 03:07:34;;;;;;;36.92;13.50;;;-2.10;99.90;;;;;;4992691;28;20383;-77
2022/01/27 03:09:59;;;;;;;39.97;12.73;;;-1.00;99.90;;;;;;4992580;28;20029;-76
2022/01/27 03:12:28;;;;;;;41.67;13.02;;;-1.30;99.90;;;;;;4993052;28;20029;-79
2022/01/27 03:14:54;;;;;;;35.30;11.52;;;-1.70;99.90;;;;;;4992812;28;20109;-76
2022/01/27 03:17:19;;;;;;;39.80;11.38;;;-1.80;99.90;;;;;;4992702;28;20101;-78
2022/01/27 03:19:45;;;;;;;36.28;12.43;;;-1.30;99.90;;;;;;4975321;28;20050;-79
2022/01/27 03:22:11;;;;;;;31.92;12.13;;;-2.00;99.90;;;;;;4992538;28;20026;-76
2022/01/27 03:24:38;;;;;;;34.65;10.82;;;-1.50;99.90;;;;;;4992703;28;20031;-79
2022/01/27 03:27:14;;;;;;;28.40;10.90;;;-1.70;99.90;;;;;;4992192;28;20022;-76
2022/01/27 03:29:40;;;;;;;37.05;10.90;;;-2.00;99.90;;;;;;4992752;28;20594;-76
2022/01/27 03:32:07;;;;;;;38.00;11.70;;;-1.90;99.90;;;;;;4992159;28;20113;-76
2022/01/27 03:34:33;;;;;;;34.17;10.15;;;-2.20;99.90;;;;;;4992375;28;20026;-78
2022/01/27 03:36:58;;;;;;;30.10;10.20;;;-1.90;99.90;;;;;;4974903;28;20055;-76
2022/01/27 03:39:26;;;;;;;39.60;13.40;;;-1.70;99.90;;;;;;4991442;28;20050;-76
2022/01/27 03:41:53;;;;;;;38.58;11.82;;;-1.60;99.90;;;;;;4991642;28;20065;-77
2022/01/27 03:44:20;;;;;;;38.60;10.85;;;-2.20;99.90;;;;;;4992205;28;20113;-76
2022/01/27 03:46:46;;;;;;;31.05;10.88;;;-1.40;99.90;;;;;;4991871;28;20118;-78
2022/01/27 03:49:12;;;;;;;41.00;11.82;;;-1.10;99.90;;;;;;4992369;28;20120;-76
2022/01/27 03:51:38;;;;;;;36.30;12.00;;;-1.30;99.90;;;;;;4974963;28;20078;-76
2022/01/27 03:54:04;;;;;;;30.10;10.85;;;-1.90;99.90;;;;;;4992402;28;20034;-76
2022/01/27 03:56:30;;;;;;;28.20;11.27;;;-1.90;99.90;;;;;;4974397;28;20049;-76
2022/01/27 03:58:56;;;;;;;31.83;9.60;;;-2.10;99.90;;;;;;4991286;28;20072;-78
2022/01/27 04:01:21;;;;;;;35.95;13.13;;;-1.00;99.90;;;;;;4991625;28;20046;-76
2022/01/27 04:03:47;;;;;;;45.13;12.50;;;-2.10;99.90;;;;;;4991479;28;20061;-79
2022/01/27 04:06:19;;;;;;;32.35;10.15;;;-2.20;99.90;;;;;;4991305;28;20026;-77
2022/01/27 04:08:45;;;;;;;40.38;11.43;;;-2.00;99.90;;;;;;4991601;28;20023;-77
2022/01/27 04:11:11;;;;;;;35.00;11.98;;;-2.20;99.90;;;;;;4991537;28;20022;-78
2022/01/27 04:13:37;;;;;;;35.92;12.70;;;-2.10;99.90;;;;;;4992269;28;20040;-77
2022/01/27 04:16:04;;;;;;;34.17;11.82;;;-1.90;99.90;;;;;;4973885;28;20455;-76
2022/01/27 04:18:31;;;;;;;34.03;12.07;;;-2.30;99.90;;;;;;4991048;28;20049;-76
2022/01/27 04:20:57;;;;;;;45.00;11.30;;;-2.20;99.90;;;;;;4991171;28;20022;-76
2022/01/27 04:23:23;;;;;;;36.20;11.13;;;-0.90;99.90;;;;;;4973632;28;20037;-76
2022/01/27 04:25:50;;;;;;;34.95;10.88;;;-2.30;99.90;;;;;;4991352;28;20054;-76
2022/01/27 04:28:23;;;;;;;29.67;11.18;;;-2.10;99.90;;;;;;4991200;28;20383;-77
2022/01/27 04:30:49;;;;;;;38.03;13.10;;;-1.80;99.90;;;;;;4991242;28;20027;-77
2022/01/27 04:33:17;;;;;;;31.83;9.95;;;-2.30;99.90;;;;;;4990395;28;20068;-76
2022/01/27 04:35:47;;;;;;;19.45;9.40;;;-1.40;99.90;;;;;;4990927;28;20029;-76
2022/01/27 04:43:56;;;;;;;32.78;10.77;;;-2.00;99.90;;;;;;4990076;28;20031;-78
2022/01/27 04:46:07;;;;;;;31.23;9.23;;;-2.40;99.90;;;;;;4987085;28;20042;-75
2022/01/27 04:48:44;;;;;;;32.88;10.48;;;-1.30;99.90;;;;;;4990540;28;20037;-77
2022/01/27 04:51:14;;;;;;;31.13;10.57;;;-2.70;99.90;;;;;;4991371;28;20031;-80
2022/01/27 04:53:56;;;;;;;39.22;12.27;;;-2.70;99.90;;;;;;4991367;28;20022;-76
2022/01/27 04:56:23;;;;;;;35.13;9.55;;;-1.70;99.90;;;;;;4990635;28;20080;-79
2022/01/27 04:58:54;;;;;;;39.42;10.75;;;-2.40;99.90;;;;;;4990236;28;20054;-77
2022/01/27 05:01:26;;;;;;;38.63;11.30;;;-1.90;99.90;;;;;;4973625;28;20121;-77
2022/01/27 05:04:01;;;;;;;40.67;12.32;;;-2.90;99.90;;;;;;4990170;28;20018;-77
2022/01/27 05:06:27;;;;;;;37.75;10.73;;;-1.60;99.90;;;;;;4972811;28;20194;-77
2022/01/27 05:08:53;;;;;;;35.83;12.90;;;-1.90;99.90;;;;;;4991108;28;20170;-76
2022/01/27 05:11:29;;;;;;;33.03;11.52;;;-2.40;99.90;;;;;;4991741;28;20030;-77
2022/01/27 05:14:06;;;;;;;42.72;13.07;;;-2.10;99.90;;;;;;4976664;28;20391;-77
2022/01/27 05:16:32;;;;;;;41.20;12.60;;;-1.90;99.90;;;;;;4994852;28;20029;-76
2022/01/27 05:18:58;;;;;;;37.65;10.90;;;-2.50;99.90;;;;;;4995265;28;20038;-76
2022/01/27 05:21:25;;;;;;;29.20;11.27;;;-0.80;99.90;;;;;;4978063;28;20033;-77
2022/01/27 05:23:51;;;;;;;41.53;12.68;;;-2.60;99.90;;;;;;4995513;28;20022;-77
2022/01/27 05:26:16;;;;;;;38.75;13.00;;;-1.70;99.90;;;;;;4995026;28;20029;-77
2022/01/27 05:28:43;;;;;;;38.10;12.60;;;-2.50;99.90;;;;;;4994940;28;20035;-77
2022/01/27 05:31:09;;;;;;;41.00;12.00;;;-2.10;99.90;;;;;;4994920;28;20077;-77
2022/01/27 05:33:35;;;;;;;35.22;12.02;;;-1.50;99.90;;;;;;4994430;28;20030;-77
2022/01/27 05:36:01;;;;;;;37.05;12.32;;;-1.70;99.90;;;;;;4995047;28;20026;-78
2022/01/27 05:38:26;;;;;;;37.75;11.93;;;-1.30;99.90;;;;;;4994213;28;20495;-77
2022/01/27 05:40:52;;;;;;;37.72;12.43;;;-2.50;99.90;;;;;;4995096;28;20068;-78
2022/01/27 05:43:20;;;;;;;33.80;11.25;;;-1.60;99.90;;;;;;4995813;28;20038;-78
2022/01/27 05:45:46;;;;;;;33.17;12.23;;;-2.50;99.90;;;;;;4994889;28;20057;-77
2022/01/27 05:48:11;;;;;;;41.45;12.52;;;-1.80;99.90;;;;;;4994515;28;20057;-77
2022/01/27 05:50:37;;;;;;;36.05;11.75;;;-1.70;99.90;;;;;;4994726;28;20030;-77
2022/01/27 05:53:04;;;;;;;34.60;11.77;;;-1.80;99.90;;;;;;4994329;28;20061;-78
2022/01/27 05:55:29;;;;;;;31.42;10.77;;;-1.40;99.90;;;;;;4994359;28;20114;-76
2022/01/27 05:57:56;;;;;;;35.53;11.25;;;-2.60;99.90;;;;;;4994067;28;20102;-76
2022/01/27 06:00:22;;;;;;;35.17;13.00;;;-2.60;99.90;;;;;;4994332;28;20026;-76
2022/01/27 06:02:48;;;;;;;35.60;11.82;;;-1.90;99.90;;;;;;4994324;28;20029;-76
2022/01/27 06:05:14;;;;;;;40.40;15.45;;;-2.50;99.90;;;;;;4994840;28;20030;-76
2022/01/27 06:07:40;;;;;;;47.80;13.27;;;-1.90;99.90;;;;;;4995274;28;20027;-76
2022/01/27 06:10:06;;;;;;;38.75;13.00;;;-1.50;99.90;;;;;;4993663;28;20030;-77
2022/01/27 06:12:32;;;;;;;37.67;10.93;;;-2.80;99.90;;;;;;4992268;28;20097;-76
2022/01/27 06:14:58;;;;;;;33.78;12.25;;;-2.80;99.90;;;;;;4993075;28;20105;-77
2022/01/27 06:17:24;;;;;;;33.40;11.90;;;-2.80;99.90;;;;;;4974893;28;20033;-76
2022/01/27 06:19:54;;;;;;;39.88;11.00;;;-2.80;99.90;;;;;;4978119;28;20121;-76
2022/01/27 06:22:20;;;;;;;53.45;14.77;;;-2.80;99.90;;;;;;4977686;28;20045;-77
2022/01/27 06:24:46;;;;;;;33.10;9.82;;;-2.90;99.90;;;;;;4974025;28;20026;-76
2022/01/27 06:27:12;;;;;;;36.78;12.13;;;-2.30;99.90;;;;;;4991645;28;20049;-82
2022/01/27 06:29:39;;;;;;;34.40;11.73;;;-2.90;99.90;;;;;;4974503;28;20030;-80
2022/01/27 06:32:05;;;;;;;35.78;11.73;;;-1.60;99.90;;;;;;4974327;28;20113;-76
2022/01/27 06:34:31;;;;;;;42.17;13.20;;;-2.90;99.90;;;;;;4974724;28;20034;-76
2022/01/27 06:36:57;;;;;;;32.47;11.88;;;-3.00;99.90;;;;;;4979348;28;20046;-76
2022/01/27 06:39:24;;;;;;;43.38;11.88;;;-1.50;99.90;;;;;;4976892;28;20289;-77
2022/01/27 06:41:50;;;;;;;36.55;10.93;;;-3.20;99.90;;;;;;4986452;28;20061;-77
2022/01/27 06:44:16;;;;;;;37.08;10.43;;;-1.30;99.90;;;;;;4991734;28;20122;-76
2022/01/27 06:46:42;;;;;;;37.80;10.77;;;-2.40;99.90;;;;;;4990409;28;20503;-77
2022/01/27 06:49:07;;;;;;;33.20;10.30;;;-2.80;99.90;;;;;;4990076;28;20077;-77
2022/01/27 06:51:33;;;;;;;47.08;14.68;;;-2.10;99.90;;;;;;4992048;28;20030;-76
2022/01/27 06:54:00;;;;;;;51.10;13.75;;;-3.10;99.90;;;;;;4992311;28;20109;-76
2022/01/27 06:56:26;;;;;;;41.85;11.95;;;-2.60;99.90;;;;;;4992018;28;20121;-76
2022/01/27 06:58:53;;;;;;;29.98;9.63;;;-1.20;99.90;;;;;;4991637;28;20041;-76
2022/01/27 07:01:19;;;;;;;27.55;8.85;;;-3.00;99.90;;;;;;4991950;28;20096;-77
2022/01/27 07:03:45;;;;;;;39.03;10.57;;;-3.00;99.90;;;;;;4991913;28;20030;-76
2022/01/27 07:06:12;;;;;;;34.55;11.60;;;-2.90;99.90;;;;;;4991902;28;20029;-76
2022/01/27 07:08:39;;;;;;;37.85;11.98;;;-2.40;99.90;;;;;;4990221;28;20380;-76
2022/01/27 07:11:05;;;;;;;38.97;12.02;;;-1.60;99.90;;;;;;4991980;28;20023;-79
2022/01/27 07:13:31;;;;;;;25.83;9.40;;;-2.80;99.90;;;;;;4990734;28;20030;-76
2022/01/27 07:15:57;;;;;;;38.83;10.98;;;-1.60;99.90;;;;;;4990980;28;20075;-76
2022/01/27 07:18:24;;;;;;;32.67;10.60;;;-2.80;99.90;;;;;;4990099;28;20627;-78
2022/01/27 07:20:50;;;;;;;33.38;10.32;;;-2.30;99.90;;;;;;4991282;28;20055;-76
2022/01/27 07:23:16;;;;;;;26.95;9.32;;;-1.70;99.90;;;;;;4991212;28;20027;-75
2022/01/27 07:25:42;;;;;;;31.02;12.20;;;-2.80;99.90;;;;;;4991708;28;20026;-79
2022/01/27 07:28:08;;;;;;;33.80;10.57;;;-2.70;99.90;;;;;;4987485;28;20031;-76
2022/01/27 07:30:34;;;;;;;31.60;12.15;;;-1.60;99.90;;;;;;4991604;28;20038;-75
2022/01/27 07:33:00;;;;;;;24.95;9.05;;;-2.90;99.90;;;;;;4994766;28;20050;-76
2022/01/27 07:35:25;;;;;;;30.38;11.48;;;-2.90;99.90;;;;;;4975581;28;20054;-77
2022/01/27 07:37:51;;;;;;;24.38;9.07;;;-3.00;99.90;;;;;;4992063;28;20426;-75
2022/01/27 07:40:17;;;;;;;28.33;8.35;;;-2.90;99.90;;;;;;4992545;28;20042;-76
2022/01/27 07:42:42;;;;;;;28.88;10.00;;;-2.90;99.90;;;;;;4992699;28;20221;-76
2022/01/27 07:45:08;;;;;;;28.88;7.80;;;-2.00;99.90;;;;;;4992103;28;20022;-76
2022/01/27 07:47:34;;;;;;;17.30;6.50;;;-2.90;99.90;;;;;;4991121;28;20022;-76
2022/01/27 07:50:00;;;;;;;18.63;7.78;;;-2.20;99.90;;;;;;4974351;28;20034;-75
2022/01/27 07:52:26;;;;;;;20.02;7.93;;;-2.70;99.90;;;;;;4991307;28;20034;-74
2022/01/27 07:54:52;;;;;;;24.45;8.68;;;-3.10;99.90;;;;;;4972762;28;20026;-76
2022/01/27 07:57:18;;;;;;;24.80;8.68;;;-2.20;99.90;;;;;;4973843;28;20388;-76
2022/01/27 07:59:44;;;;;;;23.08;8.40;;;-1.70;99.90;;;;;;4967819;28;20064;-75
2022/01/27 08:02:09;;;;;;;30.65;9.15;;;-1.70;99.90;;;;;;4972856;28;20022;-76
2022/01/27 08:04:36;;;;;;;25.70;9.68;;;-3.30;99.90;;;;;;4971532;28;20030;-80
2022/01/27 08:07:02;;;;;;;26.73;9.60;;;-3.30;99.90;;;;;;4975025;28;20021;-77
2022/01/27 08:09:29;;;;;;;32.40;9.35;;;-3.20;99.90;;;;;;4972134;28;20026;-77
2022/01/27 08:11:55;;;;;;;32.88;10.35;;;-3.10;99.90;;;;;;4971830;28;20495;-79
2022/01/27 08:14:21;;;;;;;29.15;10.18;;;-3.20;99.90;;;;;;4969016;28;20041;-85
2022/01/27 08:16:48;;;;;;;31.70;10.18;;;-3.10;99.90;;;;;;4984326;28;20018;-90
2022/01/27 08:19:14;;;;;;;32.17;9.40;;;-3.20;99.90;;;;;;4971539;28;20108;-80
2022/01/27 08:21:39;;;;;;;30.45;9.27;;;-3.30;99.90;;;;;;4970865;28;20026;-80
2022/01/27 08:24:06;;;;;;;32.33;9.15;;;-3.20;99.90;;;;;;4988084;28;20041;-79
2022/01/27 08:30:02;;;;;;;19.98;8.32;;;-3.10;99.90;;;;;;4989644;28;20037;-78
2022/01/27 08:34:32;;;;;;;24.80;8.02;;;-3.00;99.90;;;;;;4988606;28;20030;-78
2022/01/27 08:36:59;;;;;;;26.55;8.00;;;-3.00;99.90;;;;;;4970723;28;20190;-80
2022/01/27 08:39:25;;;;;;;20.45;7.85;;;-2.80;99.90;;;;;;4987002;28;20167;-75
2022/01/27 08:41:51;;;;;;;24.75;8.82;;;-2.80;99.90;;;;;;4970692;28;20084;-82
2022/01/27 08:44:17;;;;;;;21.10;7.45;;;-0.90;99.90;;;;;;4986071;28;20475;-77
2022/01/27 08:46:43;;;;;;;22.23;8.13;;;-1.70;99.90;;;;;;4985947;28;20030;-78
2022/01/27 08:49:09;;;;;;;23.63;8.32;;;-3.00;99.90;;;;;;4969014;28;20300;-80
2022/01/27 08:51:35;;;;;;;24.85;8.38;;;-2.80;99.90;;;;;;4959845;28;20019;-81
2022/01/27 08:54:01;;;;;;;19.52;7.97;;;-2.90;99.90;;;;;;4975685;28;20030;-79
2022/01/27 08:56:27;;;;;;;29.70;9.80;;;-2.80;99.90;;;;;;4968934;28;20026;-78
2022/01/27 08:58:54;;;;;;;25.95;8.02;;;-2.60;99.90;;;;;;4990124;28;20038;-78
2022/01/27 09:01:23;;;;;;;15.80;7.07;;;-2.50;99.90;;;;;;4988643;28;20026;-76
2022/01/27 09:03:48;;;;;;;18.55;7.03;;;-2.40;99.90;;;;;;4970256;28;20081;-79
2022/01/27 09:06:14;;;;;;;19.10;6.97;;;-2.40;99.90;;;;;;4987810;28;20443;-80
2022/01/27 09:08:41;;;;;;;18.17;6.68;;;-2.60;99.90;;;;;;4988045;28;20034;-79
2022/01/27 09:11:06;;;;;;;18.00;6.60;;;-2.60;99.90;;;;;;4990047;28;20072;-77
2022/01/27 09:13:32;;;;;;;19.35;7.05;;;-2.50;99.90;;;;;;4970477;28;20034;-80
2022/01/27 09:16:00;;;;;;;15.18;6.18;;;-2.60;99.90;;;;;;4970673;28;20027;-79
2022/01/27 09:18:26;;;;;;;19.95;6.53;;;-2.30;99.90;;;;;;4970404;28;20376;-83
2022/01/27 09:20:52;;;;;;;17.30;6.22;;;-2.00;99.90;;;;;;4973243;28;20440;-81
2022/01/27 09:23:18;;;;;;;19.05;6.70;;;-2.10;99.90;;;;;;4974214;28;20030;-80
2022/01/27 09:25:47;;;;;;;17.73;5.93;;;-2.00;99.90;;;;;;4971972;28;20030;-83
2022/01/27 09:28:14;;;;;;;21.02;8.85;;;-2.00;99.90;;;;;;4984042;28;20428;-83
2022/01/27 09:30:42;;;;;;;16.38;6.57;;;-2.10;99.90;;;;;;4967298;28;20035;-79
2022/01/27 09:33:08;;;;;;;16.65;6.25;;;-2.10;99.90;;;;;;4971845;28;20022;-77
2022/01/27 09:35:34;;;;;;;19.15;6.53;;;-2.20;99.90;;;;;;4989456;28;20109;-81
2022/01/27 09:38:01;;;;;;;16.42;6.53;;;-2.10;99.90;;;;;;4988436;28;20045;-78
2022/01/27 09:40:28;;;;;;;17.80;6.95;;;-2.10;99.90;;;;;;4972243;28;20031;-79
2022/01/27 09:42:55;;;;;;;14.75;6.82;;;-2.10;99.90;;;;;;4988909;28;20030;-81
2022/01/27 09:45:24;;;;;;;20.55;8.25;;;-2.10;99.90;;;;;;4987442;28;20037;-76
2022/01/27 09:48:01;;;;;;;16.83;7.15;;;-2.10;99.90;;;;;;4987871;28;20500;-76
2022/01/27 09:53:08;;;;;;;16.52;5.97;;;-1.70;99.90;;;;;;4988610;28;20038;-74
2022/01/27 09:55:34;;;;;;;18.88;6.75;;;-1.60;99.90;;;;;;4990410;28;20057;-78
2022/01/27 09:58:01;;;;;;;16.17;5.82;;;-1.50;99.90;;;;;;4988726;28;20482;-77
2022/01/27 10:00:28;;;;;;;12.10;6.68;;;-0.50;99.90;;;;;;4993117;28;20030;-76
2022/01/27 10:03:16;;;;;;;18.02;7.43;;;-1.30;99.90;;;;;;4991723;28;20049;-80
2022/01/27 10:05:43;;;;;;;22.60;7.35;;;-1.20;99.90;;;;;;4991873;28;20049;-77
2022/01/27 10:08:17;;;;;;;17.45;6.95;;;-1.00;99.90;;;;;;4991196;28;20598;-77
2022/01/27 10:10:48;;;;;;;37.92;12.93;;;-0.80;99.90;;;;;;4973882;28;20193;-79
2022/01/27 10:13:38;;;;;;;21.13;7.93;;;-0.70;99.90;;;;;;4991413;28;20105;-79
2022/01/27 10:16:07;;;;;;;16.90;6.63;;;-0.80;99.90;;;;;;4990159;28;20050;-77
2022/01/27 10:18:39;;;;;;;20.15;8.23;;;-0.80;99.90;;;;;;4982902;28;20035;-79
2022/01/27 10:21:09;;;;;;;19.92;7.10;;;-0.80;99.90;;;;;;4972900;28;20035;-77
2022/01/27 10:23:39;;;;;;;16.50;6.90;;;-0.80;99.90;;;;;;4969874;28;20019;-78
2022/01/27 10:26:13;;;;;;;;;;;-0.90;99.90;;;;;;4971903;28;20026;-79
2022/01/27 10:29:09;;;;;;;12.98;5.70;;;-1.10;99.90;;;;;;4971198;28;19913;-80
2022/01/27 10:31:39;;;;;;;12.82;5.40;;;-1.20;99.90;;;;;;4971011;28;20377;-77
2022/01/27 10:34:07;;;;;;;23.55;7.68;;;-1.20;99.90;;;;;;4982317;28;20026;-79
2022/01/27 10:36:43;;;;;;;13.10;5.57;;;-1.40;99.90;;;;;;4991170;28;20021;-78
2022/01/27 10:39:13;;;;;;;21.10;8.45;;;-1.20;99.90;;;;;;4971870;28;20060;-77
2022/01/27 10:42:12;;;;;;;19.65;6.97;;;-1.10;99.90;;;;;;4989612;28;20065;-77
2022/01/27 10:44:53;;;;;;;17.85;7.47;;;-1.20;99.90;;;;;;4989662;28;20030;-77
2022/01/27 10:47:23;;;;;;;20.67;6.97;;;-1.30;99.90;;;;;;4972003;28;20030;-77
2022/01/27 10:50:05;;;;;;;15.38;6.72;;;-1.50;99.90;;;;;;4989644;28;20557;-78
2022/01/27 10:52:43;;;;;;;19.23;7.10;;;-1.30;99.90;;;;;;4989835;28;20018;-76
2022/01/27 10:55:17;;;;;;;17.63;7.63;;;-1.30;99.90;;;;;;4972144;28;20031;-79
2022/01/27 10:57:49;;;;;;;19.30;6.65;;;-1.20;99.90;;;;;;4973412;28;20050;-77
2022/01/27 11:00:18;;;;;;;19.30;7.68;;;-0.80;99.90;;;;;;4993031;28;20473;-82
2022/01/27 11:02:50;;;;;;;24.33;7.23;;;-0.60;99.90;;;;;;4993260;28;20019;-79
2022/01/27 11:05:18;;;;;;;16.10;6.25;;;-0.50;99.90;;;;;;4975077;28;20027;-77
2022/01/27 11:07:45;;;;;;;16.15;5.93;;;1.10;99.90;;;;;;4991725;28;20030;-80
2022/01/27 11:10:13;;;;;;;22.13;7.32;;;-0.30;99.90;;;;;;4973924;28;20109;-80
2022/01/27 11:12:39;;;;;;;19.67;7.00;;;-0.30;99.90;;;;;;4992119;28;20113;-78
2022/01/27 11:15:06;;;;;;;21.92;8.75;;;-0.30;99.90;;;;;;4992156;28;20026;-78
2022/01/27 11:17:36;;;;;;;18.30;6.25;;;-0.30;99.90;;;;;;4973949;28;20152;-76
2022/01/27 11:22:46;;;;;;;22.63;8.30;;;-0.10;99.90;;;;;;4991822;28;20030;-80
2022/01/27 11:27:43;;;;;;;17.05;7.30;;;0.20;99.90;;;;;;4990921;28;20471;-81
2022/01/27 11:30:30;;;;;;;;;;;0.50;99.90;;;;;;4991406;28;20018;-77
2022/01/27 11:33:01;;;;;;;20.30;6.32;;;0.70;99.90;;;;;;4991287;28;19912;-80
2022/01/27 11:35:28;;;;;;;19.42;7.30;;;0.70;99.90;;;;;;4991596;28;20026;-77
2022/01/27 11:39:55;;;;;;;12.48;6.05;;;0.90;99.90;;;;;;5148557;27;20143;-76
2022/01/27 11:42:42;;;;;;;13.73;6.72;;;1.10;99.90;;;;;;5105318;28;20091;-76
2022/01/27 11:45:23;;;;;;;19.40;6.95;;;1.20;99.90;;;;;;5127992;28;20023;-76
2022/01/27 11:47:52;;;;;;;18.23;7.05;;;1.10;99.90;;;;;;5127748;27;20103;-75
2022/01/27 11:50:36;;;;;;;;;;;1.20;99.90;;;;;;5114173;28;20019;-77
2022/01/27 11:53:12;;;;;;;19.05;7.28;;;1.20;99.90;;;;;;5133565;27;20004;-75
2022/01/27 11:55:44;;;;;;;15.18;5.72;;;1.10;99.90;;;;;;5110086;28;20016;-75
2022/01/27 11:58:19;;;;;;;18.10;5.82;;;1.30;99.90;;;;;;5130360;28;20551;-76
2022/01/27 12:01:06;;;;;;;16.85;6.25;;;1.50;99.90;;;;;;5117328;28;20065;-75
2022/01/27 12:03:32;;;;;;;19.00;7.00;;;1.60;99.90;;;;;;5110410;27;20404;-75
2022/01/27 12:06:21;;;;;;;14.73;6.38;;;1.60;99.90;;;;;;5110854;28;20019;-75
2022/01/27 12:08:47;;;;;;;14.57;5.88;;;1.60;99.90;;;;;;5133415;28;20019;-73
2022/01/27 12:11:52;;;;;;;13.50;5.65;;;1.70;99.90;;;;;;5136115;28;20030;-76
2022/01/27 12:14:28;;;;;;;18.80;6.38;;;1.50;99.90;;;;;;5113008;28;20101;-77
2022/01/27 12:17:09;;;;;;;17.95;7.63;;;1.20;99.90;;;;;;5108995;28;20592;-75
2022/01/27 12:19:50;;;;;;;18.52;7.25;;;0.80;99.90;;;;;;5100403;28;20073;-74
2022/01/27 12:22:52;;;;;;;15.73;6.20;;;0.80;99.90;;;;;;5133325;28;20107;-75
2022/01/27 12:25:20;;;;;;;22.30;6.30;;;0.80;99.90;;;;;;5115146;28;20031;-74
2022/01/27 12:27:58;;;;;;;15.32;7.20;;;1.30;99.90;;;;;;5115428;28;20069;-74
2022/01/27 12:30:23;;;;;;;19.60;6.60;;;0.40;99.90;;;;;;5116147;28;20384;-75
2022/01/27 12:32:54;;;;;;;18.70;7.82;;;0.60;99.90;;;;;;5128828;28;20064;-75
2022/01/27 12:35:22;;;;;;;12.35;4.25;;;0.60;99.90;;;;;;5128893;28;20061;-75
2022/01/27 12:37:50;;;;;;;16.88;7.93;;;0.20;99.90;;;;;;5128781;28;20067;-75
2022/01/27 12:40:26;;;;;;;13.07;6.70;;;0.10;99.90;;;;;;5115994;28;20122;-74
2022/01/27 12:43:01;;;;;;;18.80;7.60;;;0.10;99.90;;;;;;5134798;27;20011;-75
2022/01/27 12:45:30;;;;;;;16.08;7.18;;;0.30;99.90;;;;;;5132962;27;20030;-75
2022/01/27 12:48:00;;;;;;;15.32;5.80;;;0.40;99.90;;;;;;5133148;27;20023;-74
2022/01/27 12:50:28;;;;;;;16.08;5.68;;;0.30;99.90;;;;;;5123629;27;20031;-74
2022/01/27 12:53:03;;;;;;;23.05;6.72;;;0.00;99.90;;;;;;5120924;28;20095;-75
2022/01/27 12:55:38;;;;;;;19.83;7.53;;;0.00;99.90;;;;;;5118210;28;20020;-76
2022/01/27 12:58:05;;;;;;;13.85;6.50;;;-0.20;99.90;;;;;;5116602;28;20109;-75
2022/01/27 13:00:42;;;;;;;18.33;7.03;;;-0.10;99.90;;;;;;5119482;28;20080;-74
2022/01/27 13:03:08;;;;;;;17.95;6.90;;;0.00;99.90;;;;;;5121781;28;20016;-74
2022/01/27 13:05:35;;;;;;;15.15;5.65;;;0.00;99.90;;;;;;5122677;28;20035;-74
2022/01/27 13:08:12;;;;;;;21.98;8.20;;;0.10;99.90;;;;;;5117858;28;20023;-75
2022/01/27 13:10:46;;;;;;;17.45;6.38;;;-0.10;99.90;;;;;;5117696;28;20476;-75
2022/01/27 13:13:19;;;;;;;17.95;8.18;;;-0.20;99.90;;;;;;5119831;28;20028;-75
2022/01/27 13:15:45;;;;;;;14.65;5.68;;;-0.10;99.90;;;;;;5122222;28;20015;-75
2022/01/27 13:18:21;;;;;;;17.80;6.93;;;0.40;99.90;;;;;;5121172;27;20038;-75
2022/01/27 13:20:52;;;;;;;16.95;6.97;;;1.00;99.90;;;;;;5113848;28;20027;-74
2022/01/27 13:23:26;;;;;;;16.02;7.07;;;1.30;99.90;;;;;;5114369;28;20024;-76
2022/01/27 13:25:59;;;;;;;24.40;7.82;;;1.40;99.90;;;;;;5113093;28;20023;-75
2022/01/27 13:28:35;;;;;;;20.17;7.88;;;1.80;99.90;;;;;;5113175;28;20019;-75
2022/01/27 13:31:11;;;;;;;17.30;7.57;;;2.00;99.90;;;;;;5112930;28;20049;-75